createdAt,value
2017-11-09T00:00:12.852Z,7.85
2017-11-09T00:01:13.430Z,7.88
2017-11-09T00:02:13.997Z,7.87
2017-11-09T00:03:14.566Z,7.83
2017-11-09T00:04:15.136Z,7.88
2017-11-09T00:05:15.704Z,7.90
2017-11-09T00:06:16.272Z,7.91
2017-11-09T00:07:16.840Z,7.93
2017-11-09T00:08:17.408Z,7.83
2017-11-09T00:09:17.977Z,7.77
2017-11-09T00:10:18.549Z,7.88
2017-11-09T00:11:19.116Z,7.88
2017-11-09T00:12:19.686Z,7.83
2017-11-09T00:13:20.256Z,7.88
2017-11-09T00:14:20.825Z,7.88
2017-11-09T00:15:21.393Z,7.87
2017-11-09T00:16:21.968Z,7.88
2017-11-09T00:17:22.532Z,7.82
2017-11-09T00:18:23.102Z,7.97
2017-11-09T00:19:23.670Z,7.88
2017-11-09T00:20:24.238Z,7.85
2017-11-09T00:21:24.805Z,7.90
2017-11-09T00:22:25.373Z,7.91
2017-11-09T00:23:25.941Z,7.87
2017-11-09T00:24:26.510Z,7.91
2017-11-09T00:25:27.078Z,7.80
2017-11-09T00:26:27.645Z,7.85
2017-11-09T00:27:28.213Z,7.94
2017-11-09T00:28:28.781Z,7.82
2017-11-09T00:29:29.351Z,7.85
2017-11-09T00:30:29.928Z,7.83
2017-11-09T00:31:30.498Z,7.87
2017-11-09T00:32:31.067Z,7.77
2017-11-09T00:33:31.637Z,7.85
2017-11-09T00:34:32.205Z,7.90
2017-11-09T00:35:32.775Z,8.05
2017-11-09T00:36:33.342Z,8.05
2017-11-09T00:37:33.911Z,7.94
2017-11-09T00:38:34.481Z,7.95
2017-11-09T00:39:35.049Z,7.91
2017-11-09T00:40:35.620Z,7.88
2017-11-09T00:41:36.185Z,7.87
2017-11-09T00:42:36.754Z,7.87
2017-11-09T00:43:37.323Z,7.90
2017-11-09T00:44:37.892Z,7.94
2017-11-09T00:45:38.471Z,8.06
2017-11-09T00:46:39.043Z,8.03
2017-11-09T00:47:39.625Z,8.06
2017-11-09T00:48:40.180Z,7.90
2017-11-09T00:49:40.748Z,7.90
2017-11-09T00:50:41.320Z,7.94
2017-11-09T00:51:41.885Z,7.90
2017-11-09T00:52:42.453Z,7.97
2017-11-09T00:53:43.020Z,7.87
2017-11-09T00:54:43.587Z,7.91
2017-11-09T00:55:44.160Z,7.93
2017-11-09T00:56:44.741Z,7.87
2017-11-09T00:57:45.314Z,7.85
2017-11-09T00:58:45.885Z,7.88
2017-11-09T00:59:46.466Z,7.87
2017-11-09T01:00:47.033Z,7.91
2017-11-09T01:01:47.603Z,7.87
2017-11-09T01:02:48.182Z,7.82
2017-11-09T01:03:48.752Z,7.79
2017-11-09T01:04:49.321Z,7.85
2017-11-09T01:05:49.890Z,7.87
2017-11-09T01:06:50.460Z,7.88
2017-11-09T01:07:51.030Z,7.85
2017-11-09T01:08:51.597Z,7.83
2017-11-09T01:09:52.177Z,7.85
2017-11-09T01:10:52.744Z,7.85
2017-11-09T01:11:53.312Z,7.80
2017-11-09T01:12:53.879Z,7.82
2017-11-09T01:13:54.448Z,7.88
2017-11-09T01:14:55.016Z,7.85
2017-11-09T01:15:55.585Z,7.87
2017-11-09T01:16:56.153Z,7.88
2017-11-09T01:17:56.733Z,7.88
2017-11-09T01:18:57.303Z,7.85
2017-11-09T01:19:57.871Z,7.83
2017-11-09T01:20:58.441Z,7.88
2017-11-09T01:21:59.007Z,7.87
2017-11-09T01:22:59.575Z,7.80
2017-11-09T01:24:00.144Z,7.80
2017-11-09T01:25:00.711Z,7.85
2017-11-09T01:26:01.304Z,7.87
2017-11-09T01:27:01.859Z,7.83
2017-11-09T01:28:02.429Z,7.85
2017-11-09T01:29:02.999Z,7.83
2017-11-09T01:30:03.576Z,7.85
2017-11-09T01:31:04.146Z,7.77
2017-11-09T01:32:04.714Z,7.88
2017-11-09T01:33:05.280Z,7.88
2017-11-09T01:34:05.860Z,7.88
2017-11-09T01:35:06.434Z,7.79
2017-11-09T01:36:06.997Z,7.77
2017-11-09T01:37:07.566Z,7.73
2017-11-09T01:38:08.136Z,7.76
2017-11-09T01:39:08.705Z,7.72
2017-11-09T01:40:09.273Z,7.76
2017-11-09T01:41:09.840Z,7.82
2017-11-09T01:42:10.408Z,7.85
2017-11-09T01:43:10.976Z,7.75
2017-11-09T01:44:11.545Z,7.85
2017-11-09T01:45:12.118Z,7.73
2017-11-09T01:46:12.709Z,7.72
2017-11-09T01:47:13.263Z,7.90
2017-11-09T01:48:13.838Z,7.82
2017-11-09T01:49:14.402Z,7.85
2017-11-09T01:50:14.970Z,7.73
2017-11-09T01:51:15.538Z,7.75
2017-11-09T01:52:16.107Z,7.85
2017-11-09T01:53:16.674Z,7.85
2017-11-09T01:54:17.245Z,7.90
2017-11-09T01:55:17.814Z,7.80
2017-11-09T01:56:18.383Z,7.83
2017-11-09T01:57:18.950Z,7.83
2017-11-09T01:58:19.518Z,7.83
2017-11-09T01:59:20.086Z,7.73
2017-11-09T02:00:20.653Z,7.82
2017-11-09T02:01:21.223Z,7.85
2017-11-09T02:02:21.789Z,7.76
2017-11-09T02:03:22.357Z,7.75
2017-11-09T02:04:22.925Z,7.83
2017-11-09T02:05:23.493Z,7.85
2017-11-09T02:06:24.073Z,7.87
2017-11-09T02:07:24.642Z,7.80
2017-11-09T02:08:25.210Z,7.87
2017-11-09T02:09:25.785Z,7.80
2017-11-09T02:10:26.548Z,7.88
2017-11-09T02:11:27.118Z,7.82
2017-11-09T02:12:27.685Z,7.88
2017-11-09T02:13:28.254Z,7.75
2017-11-09T02:14:28.823Z,7.83
2017-11-09T02:15:29.393Z,7.83
2017-11-09T02:16:29.961Z,7.88
2017-11-09T02:17:30.534Z,7.80
2017-11-09T02:18:31.100Z,7.75
2017-11-09T02:19:31.680Z,7.77
2017-11-09T02:20:32.448Z,7.88
2017-11-09T02:21:33.020Z,7.72
2017-11-09T02:22:33.589Z,7.69
2017-11-09T02:23:34.157Z,7.73
2017-11-09T02:24:34.725Z,7.76
2017-11-09T02:25:35.301Z,7.82
2017-11-09T02:26:35.863Z,7.76
2017-11-09T02:27:36.432Z,7.67
2017-11-09T02:28:37.012Z,7.75
2017-11-09T02:29:37.582Z,7.73
2017-11-09T02:30:38.151Z,7.69
2017-11-09T02:31:38.720Z,7.73
2017-11-09T02:32:39.288Z,7.72
2017-11-09T02:33:39.866Z,7.75
2017-11-09T02:34:40.436Z,7.83
2017-11-09T02:35:41.060Z,7.75
2017-11-09T02:36:41.628Z,7.77
2017-11-09T02:37:42.204Z,7.76
2017-11-09T02:38:42.764Z,7.70
2017-11-09T02:39:43.332Z,7.69
2017-11-09T02:40:43.899Z,7.76
2017-11-09T02:41:44.468Z,7.76
2017-11-09T02:42:45.036Z,7.75
2017-11-09T02:43:45.604Z,7.77
2017-11-09T02:44:46.170Z,7.80
2017-11-09T02:45:46.738Z,7.76
2017-11-09T02:46:47.306Z,7.73
2017-11-09T02:47:47.878Z,7.73
2017-11-09T02:48:48.445Z,7.75
2017-11-09T02:49:49.015Z,7.72
2017-11-09T02:50:49.586Z,7.75
2017-11-09T02:51:50.155Z,7.80
2017-11-09T02:52:50.727Z,7.72
2017-11-09T02:53:51.300Z,7.77
2017-11-09T02:54:51.862Z,7.72
2017-11-09T02:55:52.431Z,7.83
2017-11-09T02:56:52.998Z,7.77
2017-11-09T02:57:53.579Z,7.85
2017-11-09T02:58:54.149Z,7.75
2017-11-09T02:59:54.718Z,7.70
2017-11-09T03:00:55.286Z,7.70
2017-11-09T03:01:55.867Z,7.73
2017-11-09T03:02:56.435Z,7.83
2017-11-09T03:03:57.003Z,7.75
2017-11-09T03:04:57.590Z,7.85
2017-11-09T03:05:58.162Z,7.88
2017-11-09T03:06:58.731Z,7.85
2017-11-09T03:07:59.302Z,7.72
2017-11-09T03:08:59.881Z,7.73
2017-11-09T03:10:00.440Z,7.75
2017-11-09T03:11:01.007Z,7.79
2017-11-09T03:12:01.580Z,7.70
2017-11-09T03:13:02.151Z,7.75
2017-11-09T03:14:02.730Z,7.73
2017-11-09T03:15:03.298Z,7.72
2017-11-09T03:16:03.867Z,7.80
2017-11-09T03:17:04.434Z,7.79
2017-11-09T03:18:05.003Z,7.75
2017-11-09T03:19:05.572Z,7.77
2017-11-09T03:20:06.139Z,7.73
2017-11-09T03:21:06.709Z,7.82
2017-11-09T03:22:07.285Z,7.80
2017-11-09T03:23:07.854Z,7.87
2017-11-09T03:24:08.425Z,7.72
2017-11-09T03:25:08.995Z,7.79
2017-11-09T03:26:09.562Z,7.79
2017-11-09T03:27:10.130Z,7.75
2017-11-09T03:28:10.710Z,7.79
2017-11-09T03:29:11.279Z,7.77
2017-11-09T03:30:11.900Z,7.72
2017-11-09T03:31:12.476Z,7.75
2017-11-09T03:32:13.036Z,7.82
2017-11-09T03:33:13.602Z,7.79
2017-11-09T03:34:14.170Z,7.72
2017-11-09T03:35:14.737Z,7.75
2017-11-09T03:36:15.317Z,7.75
2017-11-09T03:37:15.890Z,7.83
2017-11-09T03:38:16.465Z,7.72
2017-11-09T03:39:17.033Z,7.75
2017-11-09T03:40:17.601Z,7.82
2017-11-09T03:41:18.181Z,7.88
2017-11-09T03:42:18.748Z,7.90
2017-11-09T03:43:19.326Z,7.83
2017-11-09T03:44:19.894Z,7.85
2017-11-09T03:45:20.462Z,7.76
2017-11-09T03:46:21.030Z,7.75
2017-11-09T03:47:21.597Z,7.87
2017-11-09T03:48:22.172Z,7.76
2017-11-09T03:49:22.736Z,7.76
2017-11-09T03:50:23.306Z,7.73
2017-11-09T03:51:23.876Z,7.88
2017-11-09T03:52:24.446Z,7.73
2017-11-09T03:53:25.013Z,7.75
2017-11-09T03:54:25.586Z,7.76
2017-11-09T03:55:26.151Z,7.73
2017-11-09T03:56:26.722Z,7.75
2017-11-09T03:57:27.292Z,7.72
2017-11-09T03:58:27.857Z,7.85
2017-11-09T03:59:28.426Z,7.73
2017-11-09T04:00:28.993Z,7.76
2017-11-09T04:01:29.577Z,7.73
2017-11-09T04:02:30.133Z,7.75
2017-11-09T04:03:30.698Z,7.73
2017-11-09T04:04:31.266Z,7.75
2017-11-09T04:05:31.833Z,7.69
2017-11-09T04:06:32.402Z,7.77
2017-11-09T04:07:32.971Z,7.73
2017-11-09T04:08:33.554Z,7.73
2017-11-09T04:09:34.120Z,7.72
2017-11-09T04:10:34.687Z,7.72
2017-11-09T04:11:35.262Z,7.77
2017-11-09T04:12:35.835Z,7.72
2017-11-09T04:13:36.405Z,7.72
2017-11-09T04:14:36.976Z,7.73
2017-11-09T04:15:37.544Z,7.72
2017-11-09T04:16:38.114Z,7.76
2017-11-09T04:17:38.682Z,7.72
2017-11-09T04:18:39.250Z,7.77
2017-11-09T04:19:39.817Z,7.75
2017-11-09T04:20:40.387Z,7.79
2017-11-09T04:21:40.956Z,7.73
2017-11-09T04:22:41.523Z,7.85
2017-11-09T04:23:42.091Z,7.91
2017-11-09T04:24:42.658Z,7.88
2017-11-09T04:25:43.225Z,7.82
2017-11-09T04:26:43.793Z,7.88
2017-11-09T04:27:44.361Z,7.83
2017-11-09T04:28:44.929Z,7.82
2017-11-09T04:29:45.498Z,7.73
2017-11-09T04:30:46.078Z,7.83
2017-11-09T04:31:46.647Z,7.87
2017-11-09T04:32:47.225Z,7.88
2017-11-09T04:33:47.797Z,7.83
2017-11-09T04:34:48.366Z,7.75
2017-11-09T04:35:48.937Z,7.82
2017-11-09T04:36:49.515Z,7.83
2017-11-09T04:37:50.082Z,7.80
2017-11-09T04:38:50.652Z,7.72
2017-11-09T04:39:51.219Z,7.87
2017-11-09T04:40:51.787Z,7.80
2017-11-09T04:41:52.355Z,7.82
2017-11-09T04:42:52.924Z,7.87
2017-11-09T04:43:53.495Z,7.85
2017-11-09T04:44:54.064Z,7.85
2017-11-09T04:45:54.634Z,7.85
2017-11-09T04:46:55.202Z,7.82
2017-11-09T04:47:55.772Z,7.88
2017-11-09T04:48:56.341Z,7.87
2017-11-09T04:49:56.911Z,7.83
2017-11-09T04:50:57.479Z,7.85
2017-11-09T04:51:58.048Z,7.85
2017-11-09T04:52:58.617Z,7.79
2017-11-09T04:53:59.186Z,7.93
2017-11-09T04:54:59.754Z,8.03
2017-11-09T04:56:00.322Z,7.91
2017-11-09T04:57:00.889Z,7.90
2017-11-09T04:58:01.457Z,7.88
2017-11-09T04:59:02.028Z,7.88
2017-11-09T05:00:02.593Z,7.94
2017-11-09T05:01:03.165Z,8.08
2017-11-09T05:02:03.748Z,8.15
2017-11-09T05:03:04.313Z,8.06
2017-11-09T05:04:04.884Z,8.16
2017-11-09T05:05:05.460Z,8.06
2017-11-09T05:06:06.030Z,8.12
2017-11-09T05:07:06.600Z,8.05
2017-11-09T05:08:07.170Z,8.12
2017-11-09T05:09:07.739Z,8.10
2017-11-09T05:10:08.309Z,8.08
2017-11-09T05:11:08.877Z,8.03
2017-11-09T05:12:09.446Z,8.01
2017-11-09T05:13:10.014Z,7.94
2017-11-09T05:14:10.596Z,8.09
2017-11-09T05:15:11.170Z,7.94
2017-11-09T05:16:11.734Z,8.00
2017-11-09T05:17:12.313Z,7.83
2017-11-09T05:18:12.885Z,7.91
2017-11-09T05:19:13.466Z,7.91
2017-11-09T05:20:14.046Z,8.08
2017-11-09T05:21:14.616Z,7.95
2017-11-09T05:22:15.186Z,7.91
2017-11-09T05:23:15.807Z,7.93
2017-11-09T05:24:16.375Z,7.90
2017-11-09T05:25:16.943Z,7.87
2017-11-09T05:26:17.522Z,7.85
2017-11-09T05:27:18.092Z,7.88
2017-11-09T05:28:18.662Z,7.90
2017-11-09T05:29:19.234Z,7.85
2017-11-09T05:30:19.802Z,7.87
2017-11-09T05:31:20.369Z,7.83
2017-11-09T05:32:20.950Z,7.91
2017-11-09T05:33:21.520Z,7.90
2017-11-09T05:34:22.099Z,7.88
2017-11-09T05:35:22.667Z,7.94
2017-11-09T05:36:23.235Z,7.88
2017-11-09T05:37:23.804Z,7.87
2017-11-09T05:38:24.384Z,7.79
2017-11-09T05:39:24.951Z,7.90
2017-11-09T05:40:25.521Z,7.79
2017-11-09T05:41:26.091Z,7.83
2017-11-09T05:42:26.660Z,7.88
2017-11-09T05:43:27.228Z,7.82
2017-11-09T05:44:27.806Z,7.88
2017-11-09T05:45:28.369Z,7.87
2017-11-09T05:46:28.935Z,7.85
2017-11-09T05:47:29.515Z,7.87
2017-11-09T05:48:30.083Z,7.82
2017-11-09T05:49:30.654Z,7.83
2017-11-09T05:50:31.222Z,7.82
2017-11-09T05:51:31.793Z,7.87
2017-11-09T05:52:32.370Z,7.87
2017-11-09T05:53:32.940Z,7.80
2017-11-09T05:54:33.510Z,7.85
2017-11-09T05:55:34.077Z,7.90
2017-11-09T05:56:34.648Z,7.87
2017-11-09T05:57:35.220Z,7.83
2017-11-09T05:58:35.795Z,7.83
2017-11-09T05:59:36.366Z,7.83
2017-11-09T06:00:36.942Z,7.91
2017-11-09T06:01:37.503Z,7.83
2017-11-09T06:02:38.074Z,7.83
2017-11-09T06:03:38.645Z,7.83
2017-11-09T06:04:39.214Z,7.83
2017-11-09T06:05:39.782Z,7.85
2017-11-09T06:06:40.349Z,7.85
2017-11-09T06:07:40.922Z,7.83
2017-11-09T06:08:41.499Z,7.83
2017-11-09T06:09:42.069Z,7.82
2017-11-09T06:10:42.640Z,7.87
2017-11-09T06:11:43.208Z,7.79
2017-11-09T06:12:43.780Z,7.80
2017-11-09T06:13:44.356Z,7.88
2017-11-09T06:14:44.924Z,7.83
2017-11-09T06:15:45.494Z,7.82
2017-11-09T06:16:46.063Z,7.85
2017-11-09T06:17:46.642Z,7.87
2017-11-09T06:18:47.214Z,7.88
2017-11-09T06:19:47.783Z,7.90
2017-11-09T06:20:48.362Z,7.88
2017-11-09T06:21:48.923Z,7.80
2017-11-09T06:22:49.493Z,7.87
2017-11-09T06:23:50.062Z,7.85
2017-11-09T06:24:50.631Z,7.83
2017-11-09T06:25:51.200Z,7.85
2017-11-09T06:26:51.768Z,7.87
2017-11-09T06:27:52.349Z,7.93
2017-11-09T06:28:52.919Z,7.88
2017-11-09T06:29:53.497Z,7.88
2017-11-09T06:30:54.067Z,7.87
2017-11-09T06:31:54.650Z,7.80
2017-11-09T06:32:55.217Z,7.88
2017-11-09T06:33:55.785Z,7.80
2017-11-09T06:34:56.355Z,7.87
2017-11-09T06:35:56.922Z,7.85
2017-11-09T06:36:57.493Z,7.90
2017-11-09T06:37:58.061Z,7.88
2017-11-09T06:38:58.630Z,7.87
2017-11-09T06:39:59.202Z,7.85
2017-11-09T06:40:59.766Z,7.83
2017-11-09T06:42:00.335Z,7.93
2017-11-09T06:43:00.904Z,7.97
2017-11-09T06:44:01.472Z,7.77
2017-11-09T06:45:02.040Z,7.79
2017-11-09T06:46:02.610Z,7.83
2017-11-09T06:47:03.179Z,7.85
2017-11-09T06:48:03.749Z,7.88
2017-11-09T06:49:04.317Z,7.77
2017-11-09T06:50:04.888Z,7.93
2017-11-09T06:51:05.456Z,7.83
2017-11-09T06:52:06.031Z,7.91
2017-11-09T06:53:06.594Z,7.97
2017-11-09T06:54:07.163Z,7.83
2017-11-09T06:55:07.731Z,7.93
2017-11-09T06:56:08.298Z,7.90
2017-11-09T06:57:08.872Z,7.91
2017-11-09T06:58:09.434Z,7.91
2017-11-09T06:59:10.009Z,7.91
2017-11-09T07:00:10.570Z,7.88
2017-11-09T07:01:11.139Z,7.82
2017-11-09T07:02:11.708Z,7.94
2017-11-09T07:03:12.277Z,7.98
2017-11-09T07:04:12.845Z,7.97
2017-11-09T07:05:13.413Z,7.91
2017-11-09T07:06:13.991Z,7.90
2017-11-09T07:07:14.561Z,7.95
2017-11-09T07:08:15.131Z,7.94
2017-11-09T07:09:15.700Z,7.88
2017-11-09T07:10:16.292Z,7.87
2017-11-09T07:11:16.863Z,7.98
2017-11-09T07:12:17.422Z,7.87
2017-11-09T07:13:17.997Z,7.88
2017-11-09T07:14:18.566Z,7.90
2017-11-09T07:15:19.127Z,7.93
2017-11-09T07:16:19.700Z,7.97
2017-11-09T07:17:20.264Z,7.94
2017-11-09T07:18:20.835Z,7.83
2017-11-09T07:19:21.402Z,7.90
2017-11-09T07:20:21.972Z,7.93
2017-11-09T07:21:22.542Z,7.88
2017-11-09T07:22:23.112Z,7.97
2017-11-09T07:23:23.683Z,7.95
2017-11-09T07:24:24.262Z,7.88
2017-11-09T07:25:24.832Z,7.87
2017-11-09T07:26:25.403Z,7.97
2017-11-09T07:27:25.974Z,7.87
2017-11-09T07:28:26.545Z,7.97
2017-11-09T07:29:27.118Z,7.94
2017-11-09T07:30:27.696Z,7.90
2017-11-09T07:31:28.266Z,7.95
2017-11-09T07:32:28.835Z,7.95
2017-11-09T07:33:29.406Z,7.94
2017-11-09T07:34:29.973Z,7.91
2017-11-09T07:35:30.542Z,7.94
2017-11-09T07:36:31.112Z,7.93
2017-11-09T07:37:31.680Z,8.06
2017-11-09T07:38:32.250Z,7.94
2017-11-09T07:39:32.820Z,7.95
2017-11-09T07:40:33.401Z,7.97
2017-11-09T07:41:33.971Z,8.05
2017-11-09T07:42:34.538Z,7.93
2017-11-09T07:43:35.115Z,8.05
2017-11-09T07:44:35.681Z,8.03
2017-11-09T07:45:36.244Z,7.97
2017-11-09T07:46:36.814Z,7.95
2017-11-09T07:47:37.386Z,8.05
2017-11-09T07:48:37.966Z,7.97
2017-11-09T07:49:38.535Z,7.90
2017-11-09T07:50:39.104Z,7.91
2017-11-09T07:51:39.685Z,7.88
2017-11-09T07:52:40.254Z,7.95
2017-11-09T07:53:40.823Z,7.95
2017-11-09T07:54:41.393Z,7.88
2017-11-09T07:55:41.963Z,7.98
2017-11-09T07:56:42.533Z,7.95
2017-11-09T07:57:43.104Z,7.91
2017-11-09T07:58:43.673Z,7.98
2017-11-09T07:59:44.262Z,7.90
2017-11-09T08:00:44.813Z,7.95
2017-11-09T08:01:45.383Z,7.90
2017-11-09T08:02:45.952Z,7.98
2017-11-09T08:03:46.526Z,7.87
2017-11-09T08:04:47.091Z,7.87
2017-11-09T08:05:47.659Z,7.95
2017-11-09T08:06:48.228Z,7.97
2017-11-09T08:07:48.798Z,7.94
2017-11-09T08:08:49.369Z,7.94
2017-11-09T08:09:49.938Z,7.90
2017-11-09T08:10:50.508Z,7.93
2017-11-09T08:11:51.078Z,7.93
2017-11-09T08:12:51.648Z,7.90
2017-11-09T08:13:52.216Z,7.90
2017-11-09T08:14:52.786Z,7.91
2017-11-09T08:15:53.355Z,7.83
2017-11-09T08:16:53.924Z,7.88
2017-11-09T08:17:54.501Z,7.91
2017-11-09T08:18:55.071Z,7.87
2017-11-09T08:19:55.640Z,7.83
2017-11-09T08:20:56.207Z,7.91
2017-11-09T08:21:56.776Z,7.87
2017-11-09T08:22:57.357Z,7.82
2017-11-09T08:23:57.950Z,7.90
2017-11-09T08:24:58.497Z,7.93
2017-11-09T08:25:59.068Z,7.80
2017-11-09T08:26:59.639Z,7.79
2017-11-09T08:28:00.209Z,7.87
2017-11-09T08:29:00.780Z,7.83
2017-11-09T08:30:01.352Z,7.85
2017-11-09T08:31:01.920Z,7.90
2017-11-09T08:32:02.491Z,7.88
2017-11-09T08:33:03.067Z,7.93
2017-11-09T08:34:03.630Z,7.90
2017-11-09T08:35:04.202Z,7.93
2017-11-09T08:36:04.774Z,7.97
2017-11-09T08:37:05.346Z,8.06
2017-11-09T08:38:05.918Z,8.00
2017-11-09T08:39:06.488Z,8.05
2017-11-09T08:40:07.060Z,8.10
2017-11-09T08:41:07.642Z,8.16
2017-11-09T08:42:08.215Z,8.13
2017-11-09T08:43:08.786Z,8.15
2017-11-09T08:44:09.357Z,8.24
2017-11-09T08:45:09.931Z,8.36
2017-11-09T08:46:10.503Z,8.37
2017-11-09T08:47:11.075Z,8.33
2017-11-09T08:48:11.657Z,8.44
2017-11-09T08:49:12.227Z,8.31
2017-11-09T08:50:12.799Z,8.33
2017-11-09T08:51:13.369Z,8.36
2017-11-09T08:52:13.952Z,8.33
2017-11-09T08:53:14.523Z,8.44
2017-11-09T08:54:15.097Z,8.31
2017-11-09T08:55:15.669Z,8.44
2017-11-09T08:56:16.240Z,8.49
2017-11-09T08:57:16.812Z,8.45
2017-11-09T08:58:17.382Z,8.49
2017-11-09T08:59:17.955Z,8.53
2017-11-09T09:00:18.530Z,8.48
2017-11-09T09:01:19.100Z,8.53
2017-11-09T09:02:19.671Z,8.53
2017-11-09T09:03:20.254Z,8.52
2017-11-09T09:04:20.888Z,8.49
2017-11-09T09:05:21.458Z,8.51
2017-11-09T09:06:22.029Z,8.44
2017-11-09T09:07:22.602Z,8.53
2017-11-09T09:08:23.174Z,8.60
2017-11-09T09:09:23.746Z,8.58
2017-11-09T09:10:24.320Z,8.49
2017-11-09T09:11:24.889Z,8.58
2017-11-09T09:12:25.460Z,8.64
2017-11-09T09:13:26.033Z,8.61
2017-11-09T09:14:26.603Z,8.63
2017-11-09T09:15:27.187Z,8.66
2017-11-09T09:16:27.769Z,8.61
2017-11-09T09:17:28.320Z,8.58
2017-11-09T09:18:28.891Z,8.63
2017-11-09T09:19:29.463Z,8.60
2017-11-09T09:20:30.036Z,8.64
2017-11-09T09:21:30.609Z,8.76
2017-11-09T09:22:31.190Z,8.73
2017-11-09T09:23:31.763Z,8.73
2017-11-09T09:24:32.332Z,8.79
2017-11-09T09:25:32.905Z,8.82
2017-11-09T09:26:33.479Z,8.85
2017-11-09T09:27:34.050Z,8.82
2017-11-09T09:28:34.623Z,8.84
2017-11-09T09:29:35.195Z,8.81
2017-11-09T09:30:35.786Z,8.85
2017-11-09T09:31:36.351Z,8.87
2017-11-09T09:32:36.934Z,8.74
2017-11-09T09:33:37.518Z,8.69
2017-11-09T09:34:38.090Z,8.74
2017-11-09T09:35:38.679Z,8.63
2017-11-09T09:36:39.247Z,8.67
2017-11-09T09:37:39.831Z,8.74
2017-11-09T09:38:40.388Z,8.61
2017-11-09T09:39:40.961Z,8.56
2017-11-09T09:40:41.533Z,8.66
2017-11-09T09:41:42.106Z,8.64
2017-11-09T09:42:42.677Z,8.60
2017-11-09T09:43:43.248Z,8.63
2017-11-09T09:44:43.819Z,8.52
2017-11-09T09:45:44.391Z,8.66
2017-11-09T09:46:44.962Z,8.61
2017-11-09T09:47:45.533Z,8.74
2017-11-09T09:48:46.117Z,8.81
2017-11-09T09:49:46.689Z,8.76
2017-11-09T09:50:47.263Z,8.87
2017-11-09T09:51:47.841Z,8.82
2017-11-09T09:52:48.414Z,8.69
2017-11-09T09:53:48.992Z,8.73
2017-11-09T09:54:49.557Z,8.63
2017-11-09T09:55:50.128Z,8.60
2017-11-09T09:56:50.699Z,8.73
2017-11-09T09:57:51.271Z,8.52
2017-11-09T09:58:51.842Z,8.56
2017-11-09T09:59:52.416Z,8.58
2017-11-09T10:00:52.999Z,8.58
2017-11-09T10:01:53.569Z,8.53
2017-11-09T10:02:54.144Z,8.52
2017-11-09T10:03:54.725Z,8.51
2017-11-09T10:04:55.296Z,8.53
2017-11-09T10:05:55.867Z,8.53
2017-11-09T10:06:56.438Z,8.51
2017-11-09T10:07:57.010Z,8.49
2017-11-09T10:08:57.593Z,8.60
2017-11-09T10:09:58.162Z,8.55
2017-11-09T10:10:58.734Z,8.58
2017-11-09T10:11:59.308Z,8.60
2017-11-09T10:12:59.881Z,8.55
2017-11-09T10:14:00.454Z,8.64
2017-11-09T10:15:01.025Z,8.69
2017-11-09T10:16:01.597Z,8.69
2017-11-09T10:17:02.170Z,8.79
2017-11-09T10:18:02.740Z,8.76
2017-11-09T10:19:03.311Z,8.84
2017-11-09T10:20:03.883Z,8.88
2017-11-09T10:21:04.455Z,8.84
2017-11-09T10:22:05.029Z,8.95
2017-11-09T10:23:05.611Z,8.95
2017-11-09T10:24:06.195Z,9.06
2017-11-09T10:25:06.767Z,9.03
2017-11-09T10:26:07.341Z,9.02
2017-11-09T10:27:07.925Z,9.22
2017-11-09T10:28:08.486Z,9.28
2017-11-09T10:29:09.061Z,9.34
2017-11-09T10:30:09.636Z,9.26
2017-11-09T10:31:10.212Z,9.26
2017-11-09T10:32:10.783Z,9.21
2017-11-09T10:33:11.368Z,9.26
2017-11-09T10:34:11.940Z,9.26
2017-11-09T10:35:12.511Z,9.29
2017-11-09T10:36:13.082Z,9.40
2017-11-09T10:37:13.655Z,9.31
2017-11-09T10:38:14.228Z,9.47
2017-11-09T10:39:14.797Z,9.40
2017-11-09T10:40:15.371Z,9.43
2017-11-09T10:41:15.955Z,9.41
2017-11-09T10:42:16.527Z,9.44
2017-11-09T10:43:17.098Z,9.50
2017-11-09T10:44:17.672Z,9.39
2017-11-09T10:45:18.250Z,9.34
2017-11-09T10:46:18.817Z,9.31
2017-11-09T10:47:19.388Z,9.22
2017-11-09T10:48:19.960Z,9.28
2017-11-09T10:49:20.540Z,9.31
2017-11-09T10:50:21.107Z,9.34
2017-11-09T10:51:21.691Z,9.44
2017-11-09T10:52:22.263Z,9.54
2017-11-09T10:53:22.835Z,9.62
2017-11-09T10:54:23.413Z,9.32
2017-11-09T10:55:23.978Z,9.23
2017-11-09T10:56:24.551Z,9.19
2017-11-09T10:57:25.125Z,9.26
2017-11-09T10:58:25.697Z,9.26
2017-11-09T10:59:26.270Z,9.23
2017-11-09T11:00:26.841Z,9.23
2017-11-09T11:01:27.414Z,9.14
2017-11-09T11:02:27.986Z,9.21
2017-11-09T11:03:28.559Z,9.06
2017-11-09T11:04:29.143Z,9.08
2017-11-09T11:05:29.715Z,9.10
2017-11-09T11:06:30.288Z,9.10
2017-11-09T11:07:30.859Z,9.13
2017-11-09T11:08:31.431Z,9.13
2017-11-09T11:09:32.004Z,9.04
2017-11-09T11:10:32.575Z,9.18
2017-11-09T11:11:33.148Z,9.03
2017-11-09T11:12:33.719Z,9.08
2017-11-09T11:13:34.292Z,9.06
2017-11-09T11:14:34.906Z,9.10
2017-11-09T11:15:35.437Z,9.25
2017-11-09T11:16:36.022Z,9.18
2017-11-09T11:17:36.596Z,9.22
2017-11-09T11:18:37.166Z,9.18
2017-11-09T11:19:37.753Z,9.22
2017-11-09T11:20:38.324Z,9.26
2017-11-09T11:21:38.894Z,9.21
2017-11-09T11:22:39.466Z,9.19
2017-11-09T11:23:40.039Z,9.22
2017-11-09T11:24:40.612Z,9.21
2017-11-09T11:25:41.184Z,9.21
2017-11-09T11:26:41.754Z,9.32
2017-11-09T11:27:42.326Z,9.26
2017-11-09T11:28:42.901Z,9.58
2017-11-09T11:29:43.471Z,9.62
2017-11-09T11:30:44.043Z,9.56
2017-11-09T11:31:44.615Z,9.44
2017-11-09T11:32:45.186Z,9.41
2017-11-09T11:33:45.766Z,9.40
2017-11-09T11:34:46.344Z,9.23
2017-11-09T11:35:46.915Z,9.36
2017-11-09T11:36:47.490Z,9.39
2017-11-09T11:37:48.060Z,9.36
2017-11-09T11:38:48.633Z,9.26
2017-11-09T11:39:49.205Z,9.04
2017-11-09T11:40:49.777Z,9.23
2017-11-09T11:41:50.351Z,9.16
2017-11-09T11:42:50.921Z,9.19
2017-11-09T11:43:51.494Z,9.03
2017-11-09T11:44:52.069Z,9.08
2017-11-09T11:45:52.649Z,9.19
2017-11-09T11:46:53.234Z,9.08
2017-11-09T11:47:53.791Z,9.21
2017-11-09T11:48:54.365Z,9.25
2017-11-09T11:49:54.937Z,9.03
2017-11-09T11:50:55.610Z,9.06
2017-11-09T11:51:56.183Z,9.10
2017-11-09T11:52:56.754Z,8.89
2017-11-09T11:53:57.326Z,8.95
2017-11-09T11:54:57.898Z,8.81
2017-11-09T11:55:58.472Z,8.91
2017-11-09T11:56:59.054Z,8.81
2017-11-09T11:57:59.625Z,8.73
2017-11-09T11:59:00.201Z,8.64
2017-11-09T12:00:00.772Z,8.70
2017-11-09T12:01:01.354Z,8.84
2017-11-09T12:02:01.928Z,8.87
2017-11-09T12:03:02.511Z,8.87
2017-11-09T12:04:03.088Z,8.74
2017-11-09T12:05:03.667Z,8.82
2017-11-09T12:06:04.249Z,8.71
2017-11-09T12:07:04.823Z,8.78
2017-11-09T12:08:05.396Z,8.95
2017-11-09T12:09:05.968Z,8.88
2017-11-09T12:10:06.540Z,8.91
2017-11-09T12:11:07.111Z,8.94
2017-11-09T12:12:07.684Z,8.87
2017-11-09T12:13:08.257Z,8.84
2017-11-09T12:14:08.830Z,8.89
2017-11-09T12:15:09.401Z,8.81
2017-11-09T12:16:09.979Z,8.95
2017-11-09T12:17:10.563Z,8.91
2017-11-09T12:18:11.126Z,8.81
2017-11-09T12:19:11.710Z,8.92
2017-11-09T12:20:12.293Z,8.99
2017-11-09T12:21:12.866Z,9.08
2017-11-09T12:22:13.438Z,9.04
2017-11-09T12:23:14.010Z,9.10
2017-11-09T12:24:14.583Z,9.10
2017-11-09T12:25:15.154Z,8.92
2017-11-09T12:26:15.729Z,9.06
2017-11-09T12:27:16.300Z,9.11
2017-11-09T12:28:16.875Z,8.97
2017-11-09T12:29:17.447Z,8.94
2017-11-09T12:30:18.019Z,8.95
2017-11-09T12:31:18.591Z,8.89
2017-11-09T12:32:19.164Z,8.82
2017-11-09T12:33:19.737Z,8.85
2017-11-09T12:34:20.309Z,8.91
2017-11-09T12:35:20.885Z,8.87
2017-11-09T12:36:21.451Z,8.88
2017-11-09T12:37:22.037Z,8.82
2017-11-09T12:38:22.608Z,8.78
2017-11-09T12:39:23.180Z,8.81
2017-11-09T12:40:23.754Z,8.61
2017-11-09T12:41:24.338Z,8.67
2017-11-09T12:42:24.911Z,8.88
2017-11-09T12:43:25.482Z,8.89
2017-11-09T12:44:26.054Z,8.73
2017-11-09T12:45:26.630Z,8.61
2017-11-09T12:46:27.198Z,8.84
2017-11-09T12:47:27.770Z,8.82
2017-11-09T12:48:28.355Z,8.94
2017-11-09T12:49:28.915Z,8.82
2017-11-09T12:50:29.487Z,8.99
2017-11-09T12:51:30.057Z,8.87
2017-11-09T12:52:30.629Z,8.99
2017-11-09T12:53:31.203Z,8.99
2017-11-09T12:54:31.774Z,8.87
2017-11-09T12:55:32.345Z,8.79
2017-11-09T12:56:32.929Z,8.73
2017-11-09T12:57:33.493Z,8.64
2017-11-09T12:58:34.070Z,8.67
2017-11-09T12:59:34.642Z,8.56
2017-11-09T13:00:35.213Z,8.52
2017-11-09T13:01:35.887Z,8.52
2017-11-09T13:02:36.460Z,8.56
2017-11-09T13:03:37.032Z,8.66
2017-11-09T13:04:37.607Z,8.46
2017-11-09T13:05:38.173Z,8.53
2017-11-09T13:06:38.746Z,8.51
2017-11-09T13:07:39.319Z,8.55
2017-11-09T13:08:39.890Z,8.58
2017-11-09T13:09:40.462Z,8.67
2017-11-09T13:10:41.034Z,8.61
2017-11-09T13:11:41.606Z,8.60
2017-11-09T13:12:42.181Z,8.64
2017-11-09T13:13:42.763Z,8.74
2017-11-09T13:14:43.342Z,8.82
2017-11-09T13:15:43.914Z,8.85
2017-11-09T13:16:44.481Z,8.78
2017-11-09T13:17:45.051Z,8.87
2017-11-09T13:18:45.622Z,8.76
2017-11-09T13:19:46.206Z,8.87
2017-11-09T13:20:46.788Z,8.85
2017-11-09T13:21:47.362Z,8.84
2017-11-09T13:22:47.933Z,8.91
2017-11-09T13:23:48.505Z,8.82
2017-11-09T13:24:49.079Z,8.79
2017-11-09T13:25:49.650Z,8.78